Time;durP1;ratioP1;P1;durP2;ratioP2;P2;SDS_P1;SDS_P2;PMS_P1;PMS_P2;Temp;Humidity;BMP_temperature;BMP_pressure;BME280_temperature;BME280_humidity;BME280_pressure;Samples;Min_cycle;Max_cycle;Signal;HPM_P1;HPM_P2
2023/03/09 00:01:27;;;;;;;57.73;32.03;;;-4.80;99.90;-6.10;98535;;;;566378;249;25180;-73
2023/03/09 00:03:59;;;;;;;57.03;34.20;;;-4.80;99.90;-6.10;98536;;;;566535;249;24136;-73
2023/03/09 00:06:23;;;;;;;58.67;33.80;;;-4.80;99.90;-6.10;98534;;;;565984;249;24136;-73
2023/03/09 00:08:51;;;;;;;58.03;35.07;;;-4.80;99.90;-6.20;98526;;;;574672;248;24173;-73
2023/03/09 00:11:19;;;;;;;63.00;37.73;;;-4.90;99.90;-6.20;98539;;;;566263;249;24101;-73
2023/03/09 00:13:47;;;;;;;71.20;39.33;;;-4.90;99.90;-6.30;98523;;;;566068;249;24122;-73
2023/03/09 00:16:18;;;;;;;68.47;39.77;;;-5.00;99.90;-6.40;98525;;;;565961;249;24081;-74
2023/03/09 00:18:47;;;;;;;56.43;36.23;;;-5.10;99.90;-6.40;98527;;;;566252;249;24090;-73
2023/03/09 00:24:16;;;;;;;56.93;35.13;;;-5.00;99.90;-6.30;98527;;;;566302;249;24080;-74
2023/03/09 00:26:44;;;;;;;63.87;38.67;;;-5.00;99.90;-6.40;98511;;;;565970;249;24103;-74
2023/03/09 00:29:14;;;;;;;71.40;38.63;;;-5.10;99.90;-6.40;98518;;;;566134;249;24091;-73
2023/03/09 00:31:39;;;;;;;68.30;40.53;;;-5.10;99.90;-6.40;98521;;;;565980;249;24128;-73
2023/03/09 00:34:07;;;;;;;73.47;45.57;;;-5.10;99.90;-6.40;98525;;;;566079;249;24118;-74
2023/03/09 00:36:38;;;;;;;86.47;47.83;;;-5.10;99.90;-6.40;98513;;;;566048;249;24099;-73
2023/03/09 00:39:04;;;;;;;98.72;54.30;;;-5.10;99.90;-6.30;98521;;;;569380;249;35372;-74
2023/03/09 00:41:31;;;;;;;93.47;53.63;;;-5.10;99.90;-6.30;98520;;;;565959;249;24214;-73
2023/03/09 00:44:02;;;;;;;94.20;50.70;;;-5.00;99.90;-6.30;98516;;;;566055;249;24115;-74
2023/03/09 00:46:31;;;;;;;103.53;53.47;;;-5.10;99.90;-6.30;98518;;;;566080;249;24086;-74
2023/03/09 00:49:02;;;;;;;110.17;55.43;;;-5.00;99.90;-6.30;98518;;;;566007;249;24121;-73
2023/03/09 00:51:27;;;;;;;113.60;58.90;;;-5.00;99.90;-6.40;98515;;;;567397;249;24108;-74
2023/03/09 00:53:55;;;;;;;119.13;60.77;;;-5.10;99.90;-6.40;98510;;;;564757;249;24124;-73
2023/03/09 00:56:25;;;;;;;116.67;61.60;;;-5.10;99.90;-6.40;98514;;;;566652;249;24205;-74
2023/03/09 00:58:50;;;;;;;89.83;49.83;;;-5.10;99.90;-6.40;98513;;;;564084;250;24120;-73
2023/03/09 01:01:18;;;;;;;87.00;49.93;;;-5.10;99.90;-6.40;98508;;;;570055;249;24127;-74
2023/03/09 01:03:46;;;;;;;81.50;49.73;;;-5.10;99.90;-6.40;98502;;;;574583;248;24087;-73
2023/03/09 01:06:14;;;;;;;90.63;51.70;;;-5.10;99.90;-6.40;98510;;;;574563;248;24171;-74
2023/03/09 01:08:45;;;;;;;86.47;48.83;;;-5.10;99.90;-6.40;98513;;;;567378;249;24151;-74
2023/03/09 01:11:10;;;;;;;79.13;47.73;;;-5.20;99.90;-6.40;98516;;;;566796;249;24125;-73
2023/03/09 01:13:38;;;;;;;82.20;48.30;;;-5.10;99.90;-6.50;98509;;;;566823;249;24121;-74
2023/03/09 01:16:07;;;;;;;83.80;46.07;;;-5.20;99.90;-6.40;98510;;;;575302;248;24116;-73
2023/03/09 01:18:35;;;;;;;75.40;46.10;;;-5.20;99.90;-6.50;98509;;;;575137;248;24089;-74
2023/03/09 01:21:03;;;;;;;79.80;47.23;;;-5.20;99.90;-6.50;98513;;;;574725;249;25154;-73
2023/03/09 01:23:31;;;;;;;84.83;46.37;;;-5.20;99.90;-6.50;98503;;;;566354;249;24132;-72
2023/03/09 01:26:02;;;;;;;70.07;43.40;;;-5.20;99.90;-6.60;98503;;;;565987;249;24081;-74
2023/03/09 01:28:27;;;;;;;65.07;40.83;;;-5.30;99.90;-6.60;98503;;;;565846;249;24143;-73
2023/03/09 01:30:55;;;;;;;66.70;39.10;;;-5.30;99.90;-6.60;98515;;;;574595;248;24130;-74
2023/03/09 01:33:23;;;;;;;70.20;42.73;;;-5.30;99.90;-6.70;98511;;;;574512;249;24170;-72
2023/03/09 01:35:51;;;;;;;74.20;43.67;;;-5.40;99.90;-6.70;98509;;;;574611;248;25499;-74
2023/03/09 01:38:19;;;;;;;84.93;47.38;;;-5.40;99.90;-6.70;98509;;;;569510;248;46279;-73
2023/03/09 01:40:49;;;;;;;73.53;42.40;;;-5.40;99.90;-6.60;98520;;;;574582;248;24100;-74
2023/03/09 01:43:34;;;;;;;65.20;38.27;;;-5.40;99.90;-6.60;98512;;;;565568;249;24147;-73
2023/03/09 01:46:25;;;;;;;62.77;37.87;;;-5.30;99.90;-6.60;98513;;;;566056;249;24116;-74
2023/03/09 01:49:27;;;;;;;68.30;40.13;;;-5.30;99.90;-6.60;98504;;;;574235;248;24263;-74
2023/03/09 01:52:13;;;;;;;60.20;38.57;;;-5.30;99.90;-6.70;98503;;;;574118;248;27374;-72
2023/03/09 01:55:05;;;;;;;70.03;41.80;;;-5.40;99.90;-6.70;98510;;;;565696;249;24124;-75
2023/03/09 01:57:36;;;;;;;67.20;40.67;;;-5.40;99.90;-6.70;98508;;;;565680;249;24127;-75
2023/03/09 02:00:05;;;;;;;66.27;39.83;;;-5.40;99.90;-6.70;98505;;;;569823;249;24104;-77
2023/03/09 02:02:33;;;;;;;67.43;37.37;;;-5.40;99.90;-6.70;98513;;;;565687;249;24104;-75
2023/03/09 02:05:03;;;;;;;61.80;38.40;;;-5.40;99.90;-6.70;98520;;;;565629;249;24146;-73
2023/03/09 02:07:30;;;;;;;67.43;36.80;;;-5.50;99.90;-6.80;98513;;;;565778;249;24146;-74
2023/03/09 02:10:10;;;;;;;59.87;34.77;;;-5.50;99.90;-6.80;98505;;;;565607;249;24093;-73
2023/03/09 02:12:38;;;;;;;64.87;36.57;;;-5.50;99.90;-6.80;98500;;;;566030;249;24097;-72
2023/03/09 02:15:07;;;;;;;62.50;36.53;;;-5.50;99.90;-6.80;98507;;;;565634;249;24134;-74
2023/03/09 02:17:34;;;;;;;57.90;35.53;;;-5.50;99.90;-6.80;98504;;;;565947;249;24093;-75
2023/03/09 02:20:04;;;;;;;57.97;35.60;;;-5.50;99.90;-6.80;98511;;;;575444;248;24099;-76
2023/03/09 02:22:30;;;;;;;58.27;36.87;;;-5.50;99.90;-6.80;98499;;;;575382;249;25130;-73
2023/03/09 02:25:14;;;;;;;56.70;34.77;;;-5.50;99.90;-6.80;98509;;;;566738;249;24140;-72
2023/03/09 02:27:45;;;;;;;47.40;30.20;;;-5.50;99.90;-6.80;98509;;;;566728;249;24137;-78
2023/03/09 02:30:10;;;;;;;52.07;31.57;;;-5.50;99.90;-6.80;98502;;;;566294;249;24121;-75
2023/03/09 02:32:38;;;;;;;54.57;32.23;;;-5.50;99.90;-6.80;98512;;;;575154;248;25129;-74
2023/03/09 02:35:09;;;;;;;52.43;31.83;;;-5.50;99.90;-6.80;98511;;;;575135;248;24157;-86
2023/03/09 02:37:35;;;;;;;58.10;33.07;;;-5.60;99.90;-6.90;98502;;;;566341;249;25123;-80
2023/03/09 02:40:04;;;;;;;61.23;33.53;;;-5.60;99.90;-6.90;98501;;;;566352;249;24107;-86
2023/03/09 02:42:31;;;;;;;55.10;31.60;;;-5.60;99.90;-6.90;98506;;;;564369;249;35357;-73
2023/03/09 02:44:59;;;;;;;51.33;30.53;;;-5.60;99.90;-7.00;98492;;;;574925;248;24091;-74
2023/03/09 02:47:27;;;;;;;47.60;29.20;;;-5.60;99.90;-7.00;98493;;;;566278;249;24146;-74
2023/03/09 02:49:55;;;;;;;52.53;31.87;;;-5.70;99.90;-7.00;98503;;;;574880;248;24139;-75
2023/03/09 02:52:23;;;;;;;58.47;32.33;;;-5.70;99.90;-7.10;98500;;;;574909;248;24126;-73
2023/03/09 02:54:51;;;;;;;53.73;33.00;;;-5.70;99.90;-7.10;98507;;;;574757;248;24125;-73
2023/03/09 02:57:19;;;;;;;56.57;33.67;;;-5.80;99.90;-7.10;98512;;;;574180;248;24168;-74
2023/03/09 02:59:47;;;;;;;55.13;34.10;;;-5.80;99.90;-7.10;98514;;;;574170;249;25166;-73
2023/03/09 03:02:15;;;;;;;55.37;33.30;;;-5.80;99.90;-7.10;98506;;;;565669;249;24147;-73
2023/03/09 03:04:43;;;;;;;53.77;33.87;;;-5.80;99.90;-7.10;98512;;;;574319;249;24137;-73
2023/03/09 03:07:10;;;;;;;54.60;33.43;;;-5.70;99.90;-7.10;98505;;;;574226;248;24117;-73
2023/03/09 03:09:38;;;;;;;52.00;31.67;;;-5.80;99.90;-7.10;98503;;;;574350;248;24155;-74
2023/03/09 03:12:06;;;;;;;53.90;33.17;;;-5.80;99.90;-7.10;98509;;;;574305;248;24102;-73
2023/03/09 03:14:34;;;;;;;56.80;33.10;;;-5.80;99.90;-7.10;98510;;;;574149;248;24219;-74
2023/03/09 03:17:02;;;;;;;54.10;33.93;;;-5.80;99.90;-7.20;98517;;;;565694;249;24146;-74
2023/03/09 03:19:32;;;;;;;58.17;34.37;;;-5.80;99.90;-7.20;98517;;;;574338;248;24112;-74
2023/03/09 03:21:58;;;;;;;53.00;33.90;;;-5.80;99.90;-7.20;98511;;;;574551;249;24121;-74
2023/03/09 03:24:26;;;;;;;58.40;32.77;;;-5.80;99.90;-7.20;98517;;;;574631;248;24096;-73
2023/03/09 03:26:54;;;;;;;52.73;31.50;;;-5.90;99.90;-7.20;98513;;;;574645;248;24080;-73
2023/03/09 03:29:22;;;;;;;47.63;29.60;;;-5.90;99.90;-7.20;98516;;;;574641;248;24132;-74
2023/03/09 03:31:50;;;;;;;52.57;31.37;;;-5.80;99.90;-7.10;98537;;;;567449;249;24105;-74
2023/03/09 03:34:21;;;;;;;50.47;30.07;;;-5.80;99.90;-7.10;98534;;;;566994;249;25132;-74
2023/03/09 03:36:45;;;;;;;52.17;31.60;;;-5.80;99.90;-7.10;98538;;;;566445;249;24137;-74
2023/03/09 03:39:13;;;;;;;49.30;30.27;;;-5.80;99.90;-7.10;98546;;;;575393;248;24129;-74
2023/03/09 03:41:42;;;;;;;50.20;29.67;;;-5.80;99.90;-7.10;98540;;;;575162;248;24152;-74
2023/03/09 03:44:10;;;;;;;54.73;28.77;;;-5.80;99.90;-7.10;98549;;;;575123;248;24195;-76
2023/03/09 03:46:38;;;;;;;46.10;26.47;;;-5.80;99.90;-7.10;98539;;;;575154;248;24059;-74
2023/03/09 03:49:06;;;;;;;44.97;27.03;;;-5.80;99.90;-7.10;98531;;;;575014;248;24090;-77
2023/03/09 03:51:34;;;;;;;44.53;27.77;;;-5.70;99.90;-7.00;98531;;;;574884;248;24110;-74
2023/03/09 03:54:02;;;;;;;46.13;26.80;;;-5.70;99.90;-7.10;98539;;;;574909;248;24090;-75
2023/03/09 03:56:30;;;;;;;45.17;28.73;;;-5.70;99.90;-7.00;98544;;;;574927;249;24127;-75
2023/03/09 03:58:57;;;;;;;47.30;28.17;;;-5.70;99.90;-7.10;98539;;;;574530;248;24106;-74
2023/03/09 04:01:25;;;;;;;43.20;27.33;;;-5.70;99.90;-7.00;98549;;;;574439;249;24078;-73
2023/03/09 04:03:53;;;;;;;53.53;31.13;;;-5.70;99.90;-7.10;98547;;;;574573;248;24124;-74
2023/03/09 04:06:21;;;;;;;46.40;28.87;;;-5.70;99.90;-7.10;98548;;;;574420;248;24275;-74
2023/03/09 04:08:49;;;;;;;49.53;29.97;;;-5.70;99.90;-7.10;98543;;;;574587;248;24074;-74
2023/03/09 04:11:17;;;;;;;45.50;28.23;;;-5.70;99.90;-7.10;98540;;;;574316;249;24079;-74
2023/03/09 04:13:48;;;;;;;46.53;26.97;;;-5.70;99.90;-7.10;98547;;;;574263;248;24127;-74
2023/03/09 04:16:18;;;;;;;49.07;28.50;;;-5.70;99.90;-7.10;98545;;;;565735;249;24133;-76
2023/03/09 04:18:43;;;;;;;44.00;27.37;;;-5.70;99.90;-7.10;98541;;;;565303;249;24142;-73
2023/03/09 04:21:11;;;;;;;41.07;26.60;;;-5.70;99.90;-7.10;98555;;;;574392;248;24085;-74
2023/03/09 04:23:39;;;;;;;47.00;28.33;;;-5.70;99.90;-7.10;98539;;;;574606;248;24098;-76
2023/03/09 04:26:07;;;;;;;48.33;28.00;;;-5.70;99.90;-7.00;98544;;;;574641;248;24085;-74
2023/03/09 04:28:35;;;;;;;46.97;28.77;;;-5.70;99.90;-7.10;98541;;;;566136;249;24079;-74
2023/03/09 04:31:03;;;;;;;45.73;28.27;;;-5.70;99.90;-7.10;98550;;;;574630;249;24131;-74
2023/03/09 04:33:31;;;;;;;47.30;29.70;;;-5.70;99.90;-7.10;98548;;;;574653;248;24113;-74
2023/03/09 04:35:59;;;;;;;51.13;31.70;;;-5.70;99.90;-7.10;98548;;;;574658;248;24090;-74
2023/03/09 04:38:27;;;;;;;56.03;34.73;;;-5.80;99.90;-7.20;98550;;;;574675;248;24123;-75
2023/03/09 04:40:55;;;;;;;66.13;36.57;;;-5.80;99.90;-7.20;98542;;;;574620;248;24108;-74
2023/03/09 04:43:23;;;;;;;69.80;37.73;;;-5.80;99.90;-7.20;98540;;;;576016;248;24129;-73
2023/03/09 04:45:51;;;;;;;67.37;37.17;;;-5.90;99.90;-7.30;98543;;;;575720;248;24103;-73
2023/03/09 04:48:18;;;;;;;59.50;33.20;;;-5.90;99.90;-7.30;98541;;;;575434;248;24124;-77
2023/03/09 04:50:50;;;;;;;47.43;27.53;;;-5.90;99.90;-7.30;98537;;;;575414;248;24102;-73
2023/03/09 04:53:16;;;;;;;50.80;28.60;;;-5.90;99.90;-7.30;98542;;;;566264;249;24115;-74
2023/03/09 04:55:44;;;;;;;46.50;28.53;;;-5.90;99.90;-7.30;98541;;;;575240;248;24102;-74
2023/03/09 04:58:13;;;;;;;44.87;28.00;;;-5.90;99.90;-7.30;98530;;;;574987;248;24115;-75
2023/03/09 05:00:41;;;;;;;40.57;24.63;;;-6.00;99.90;-7.30;98543;;;;574513;248;24104;-73
2023/03/09 05:03:09;;;;;;;45.67;26.07;;;-5.90;99.90;-7.20;98542;;;;574425;249;24112;-75
2023/03/09 05:05:37;;;;;;;38.00;23.43;;;-5.90;99.90;-7.30;98544;;;;574472;248;24122;-74
2023/03/09 05:08:08;;;;;;;45.57;24.73;;;-5.90;99.90;-7.30;98538;;;;574683;248;24114;-73
2023/03/09 05:10:33;;;;;;;39.20;23.93;;;-5.90;99.90;-7.30;98549;;;;565904;249;24093;-74
2023/03/09 05:13:01;;;;;;;42.87;24.90;;;-5.90;99.90;-7.30;98548;;;;574439;248;24108;-74
2023/03/09 05:15:29;;;;;;;42.67;24.97;;;-5.90;99.90;-7.30;98539;;;;574544;248;24162;-74
2023/03/09 05:17:56;;;;;;;41.80;25.97;;;-5.90;99.90;-7.20;98545;;;;574404;248;24084;-75
2023/03/09 05:20:26;;;;;;;35.50;21.70;;;-5.90;99.90;-7.20;98535;;;;574287;248;24151;-72
2023/03/09 05:22:55;;;;;;;37.45;22.75;;;-5.90;99.90;-7.20;98554;;;;569098;248;46351;-75
2023/03/09 05:25:22;;;;;;;40.53;22.10;;;-5.90;99.90;-7.10;98550;;;;563610;249;24097;-76
2023/03/09 05:27:49;;;;;;;39.70;22.13;;;-5.80;99.90;-7.00;98547;;;;574482;249;24113;-74
2023/03/09 05:30:19;;;;;;;34.40;20.83;;;-5.70;99.90;-7.00;98554;;;;574583;248;24147;-72
2023/03/09 05:32:44;;;;;;;40.50;23.63;;;-5.70;99.90;-6.90;98549;;;;570502;240;24137;-71
2023/03/09 05:35:16;;;;;;;34.43;22.50;;;-5.60;99.90;-6.80;98556;;;;585118;240;24018;-72
2023/03/09 05:37:40;;;;;;;34.57;21.60;;;-5.50;99.90;-6.70;98547;;;;584693;240;24041;-73
2023/03/09 05:40:08;;;;;;;30.97;20.17;;;-5.40;99.90;-6.70;98542;;;;585169;240;24063;-76
2023/03/09 05:42:36;;;;;;;32.27;19.10;;;-5.30;99.90;-6.50;98556;;;;598581;239;24069;-71
2023/03/09 05:45:04;;;;;;;31.30;19.77;;;-5.20;99.90;-6.50;98549;;;;585254;240;24123;-74
2023/03/09 05:47:36;;;;;;;31.47;19.60;;;-5.20;99.90;-6.30;98560;;;;589327;240;24058;-71
2023/03/09 05:50:00;;;;;;;30.30;18.63;;;-5.10;99.90;-6.20;98558;;;;582826;240;24030;-74
2023/03/09 05:52:28;;;;;;;32.80;19.53;;;-4.90;99.90;-6.10;98563;;;;585087;240;24076;-74
2023/03/09 05:54:59;;;;;;;30.83;18.27;;;-4.70;99.90;-6.00;98553;;;;586675;239;24053;-75
2023/03/09 05:57:24;;;;;;;31.17;17.93;;;-4.70;99.90;-5.80;98565;;;;586007;239;24089;-77
2023/03/09 05:59:52;;;;;;;30.60;18.23;;;-4.60;99.90;-5.70;98559;;;;590381;239;24076;-73
2023/03/09 06:02:20;;;;;;;32.47;16.53;;;-4.50;99.90;-5.60;98568;;;;590282;239;24047;-74
2023/03/09 06:04:51;;;;;;;32.23;19.20;;;-4.30;99.90;-5.30;98564;;;;589598;239;24034;-74
2023/03/09 06:07:19;;;;;;;33.40;19.27;;;-4.10;99.90;-5.10;98571;;;;589719;239;24089;-72
2023/03/09 06:09:47;;;;;;;29.07;17.03;;;-3.90;99.90;-4.90;98574;;;;589620;239;24021;-72
2023/03/09 06:12:17;;;;;;;35.95;20.92;;;-3.70;99.90;-4.60;98579;;;;584484;240;35051;-72
2023/03/09 06:14:43;;;;;;;33.43;18.87;;;-3.40;99.90;-4.40;98578;;;;589295;240;24069;-73
2023/03/09 06:17:11;;;;;;;34.07;20.87;;;-3.20;99.90;-4.10;98586;;;;589568;240;24039;-77
2023/03/09 06:19:38;;;;;;;32.57;18.77;;;-2.90;99.90;-3.80;98585;;;;589472;240;24032;-72
2023/03/09 06:22:07;;;;;;;30.67;16.63;;;-2.40;99.90;-3.60;98586;;;;589327;240;24010;-72
2023/03/09 06:24:36;;;;;;;29.03;15.63;;;-2.10;99.90;-3.20;98594;;;;589487;240;24072;-71
2023/03/09 06:27:04;;;;;;;29.27;15.30;;;-2.10;99.90;-2.80;98596;;;;589817;240;24039;-73
2023/03/09 06:29:32;;;;;;;32.00;17.53;;;-1.70;99.90;-2.20;98606;;;;589668;240;24019;-74
2023/03/09 06:32:00;;;;;;;24.43;15.17;;;-1.20;99.90;-1.60;98610;;;;598797;240;24152;-73
2023/03/09 06:34:30;;;;;;;19.50;9.27;;;-0.60;99.90;-1.20;98608;;;;589598;240;24077;-73
2023/03/09 06:36:58;;;;;;;17.50;8.93;;;-0.20;99.90;-0.40;98613;;;;576069;245;24095;-72
2023/03/09 06:39:26;;;;;;;11.73;6.07;;;0.60;99.90;0.10;98621;;;;576145;245;24065;-72
2023/03/09 06:41:58;;;;;;;11.33;5.73;;;1.10;99.90;0.10;98622;;;;576127;245;24094;-74
2023/03/09 06:44:22;;;;;;;9.93;6.37;;;1.40;99.90;0.20;98617;;;;584601;245;24060;-70
2023/03/09 06:46:50;;;;;;;13.30;6.27;;;1.50;99.90;0.30;98618;;;;576079;245;24125;-71
2023/03/09 06:49:18;;;;;;;9.30;5.47;;;1.60;99.90;0.50;98633;;;;576107;245;24112;-71
2023/03/09 06:51:46;;;;;;;13.17;5.80;;;1.70;99.90;1.00;98634;;;;576105;245;24095;-71
2023/03/09 06:54:14;;;;;;;9.97;5.83;;;2.00;99.90;1.50;98646;;;;576135;245;24071;-70
2023/03/09 06:56:41;;;;;;;6.93;4.40;;;2.50;99.90;1.90;98645;;;;576087;245;24109;-71
2023/03/09 06:59:09;;;;;;;7.87;4.50;;;2.90;99.90;2.00;98644;;;;572709;245;25113;-74
2023/03/09 07:01:37;;;;;;;10.73;5.77;;;3.10;99.90;2.30;98656;;;;575680;245;24118;-78
2023/03/09 07:04:07;;;;;;;7.00;4.37;;;3.40;99.90;2.50;98665;;;;575857;245;24103;-75
2023/03/09 07:06:33;;;;;;;6.67;4.43;;;3.60;99.90;2.70;98656;;;;576852;245;24467;-77
2023/03/09 07:09:01;;;;;;;10.30;5.97;;;3.80;99.90;2.80;98660;;;;576653;245;24104;-74
2023/03/09 07:11:29;;;;;;;8.63;4.87;;;4.00;99.90;3.00;98667;;;;576552;245;24060;-72
2023/03/09 07:13:57;;;;;;;10.97;4.93;;;4.20;99.90;3.20;98661;;;;576345;245;24104;-75
2023/03/09 07:16:26;;;;;;;9.07;5.60;;;4.40;99.90;3.40;98660;;;;576324;245;24084;-73
2023/03/09 07:18:53;;;;;;;5.83;4.23;;;4.50;99.90;3.50;98656;;;;576144;245;24056;-72
2023/03/09 07:21:21;;;;;;;9.00;4.27;;;4.60;99.90;3.60;98658;;;;576099;245;24101;-77
2023/03/09 07:23:49;;;;;;;13.13;4.20;;;4.90;99.90;3.90;98666;;;;576123;245;25147;-71
2023/03/09 07:26:18;;;;;;;8.33;4.10;;;4.90;99.90;4.60;98661;;;;576333;245;24102;-72
2023/03/09 07:28:45;;;;;;;16.63;4.90;;;5.40;99.90;5.40;98666;;;;576355;245;24048;-76
2023/03/09 07:31:17;;;;;;;13.07;5.37;;;6.20;99.90;5.70;98672;;;;576362;245;24103;-73
2023/03/09 07:33:41;;;;;;;8.93;4.33;;;6.60;99.90;6.00;98678;;;;576035;245;24096;-76
2023/03/09 07:36:09;;;;;;;5.80;4.20;;;6.90;99.90;6.20;98678;;;;576394;245;24107;-73
2023/03/09 07:38:37;;;;;;;5.30;3.43;;;7.10;99.90;6.10;98677;;;;576306;245;24065;-77
2023/03/09 07:41:06;;;;;;;7.53;3.33;;;7.10;96.40;6.20;98691;;;;576332;245;24082;-71
2023/03/09 07:43:32;;;;;;;4.93;2.30;;;7.10;95.10;6.60;98691;;;;575731;245;24063;-75
2023/03/09 07:46:00;;;;;;;10.80;4.10;;;7.40;90.20;7.20;98692;;;;575889;245;24096;-75
2023/03/09 07:48:28;;;;;;;5.23;2.33;;;7.80;85.80;7.70;98694;;;;575697;245;24048;-74
2023/03/09 07:51:02;;;;;;;4.90;2.37;;;8.40;80.20;7.60;98694;;;;575664;245;24203;-75
2023/03/09 07:53:27;;;;;;;3.60;2.27;;;8.40;76.70;7.60;98697;;;;575372;245;24101;-76
2023/03/09 07:56:00;;;;;;;5.47;3.67;;;8.50;74.70;7.90;98706;;;;575568;245;24072;-79
2023/03/09 07:58:25;;;;;;;14.67;6.83;;;8.70;73.00;7.80;98704;;;;575511;245;24127;-76
2023/03/09 08:00:53;;;;;;;6.97;4.20;;;8.80;71.50;7.20;98703;;;;575656;245;24064;-80
2023/03/09 08:03:22;;;;;;;3.97;2.47;;;7.90;70.20;6.60;98709;;;;575818;245;24142;-78
2023/03/09 08:05:54;;;;;;;13.13;5.00;;;7.90;70.20;6.00;98709;;;;575740;245;24110;-75
2023/03/09 08:08:18;;;;;;;14.40;4.37;;;7.30;70.40;5.50;98704;;;;575854;245;24122;-78
2023/03/09 08:10:49;;;;;;;11.43;5.07;;;6.80;70.80;5.10;98704;;;;576113;245;24052;-76
2023/03/09 08:13:17;;;;;;;6.70;4.13;;;6.20;74.50;5.10;98711;;;;575902;245;24081;-74
2023/03/09 08:15:45;;;;;;;6.80;2.20;;;6.10;74.40;5.40;98720;;;;576100;245;24067;-76
2023/03/09 08:18:14;;;;;;;4.33;2.37;;;6.30;73.00;5.20;98716;;;;586447;243;24060;-78
2023/03/09 08:20:42;;;;;;;8.87;3.90;;;6.30;73.00;5.40;98718;;;;577188;245;24081;-79
2023/03/09 08:23:10;;;;;;;6.67;3.03;;;6.40;73.50;5.40;98716;;;;576970;245;24058;-78
2023/03/09 08:25:41;;;;;;;6.17;2.77;;;6.40;73.80;5.50;98724;;;;576689;245;24117;-75
2023/03/09 08:28:05;;;;;;;5.10;2.20;;;6.40;74.30;5.20;98721;;;;576147;245;24104;-73
2023/03/09 08:30:34;;;;;;;6.87;2.43;;;6.00;72.80;4.70;98722;;;;576288;245;24058;-76
2023/03/09 08:33:02;;;;;;;4.67;2.77;;;5.90;72.70;4.50;98718;;;;576411;245;24068;-76
2023/03/09 08:35:31;;;;;;;6.13;3.10;;;5.60;74.30;4.30;98716;;;;576136;245;24087;-75
2023/03/09 08:37:58;;;;;;;9.40;4.40;;;5.40;74.70;4.00;98715;;;;576368;245;24092;-76
2023/03/09 08:40:29;;;;;;;11.30;3.83;;;5.20;75.80;4.00;98718;;;;576058;245;24094;-77
2023/03/09 08:42:54;;;;;;;9.60;4.47;;;5.10;77.10;4.00;98718;;;;586849;244;24096;-73
2023/03/09 08:45:21;;;;;;;7.10;4.03;;;5.10;77.90;4.10;98722;;;;574428;243;24122;-72
2023/03/09 08:47:49;;;;;;;8.40;3.30;;;5.10;78.60;4.40;98731;;;;585808;241;24096;-73
2023/03/09 08:50:17;;;;;;;6.40;3.07;;;5.30;78.60;4.50;98735;;;;574422;246;26350;-73
2023/03/09 08:52:46;;;;;;;7.23;3.40;;;5.50;78.70;5.00;98739;;;;573016;247;24055;-74
2023/03/09 08:55:13;;;;;;;6.43;3.50;;;5.80;79.00;5.50;98739;;;;581863;244;24075;-74
2023/03/09 08:57:41;;;;;;;7.33;4.10;;;6.30;76.50;6.10;98743;;;;579014;244;24059;-73
2023/03/09 09:00:14;;;;;;;7.63;3.80;;;7.60;74.30;6.90;98755;;;;587219;244;24072;-77
2023/03/09 09:02:38;;;;;;;6.97;4.67;;;7.60;74.30;8.00;98760;;;;573792;246;24072;-72
2023/03/09 09:05:06;;;;;;;5.57;4.33;;;8.70;71.50;9.20;98758;;;;582138;244;24081;-73
2023/03/09 09:07:34;;;;;;;8.03;4.07;;;9.90;69.10;9.70;98769;;;;577726;244;24096;-76
2023/03/09 09:10:02;;;;;;;6.87;4.10;;;10.80;62.20;9.70;98770;;;;579863;244;24086;-75
2023/03/09 09:12:32;;;;;;;6.77;3.27;;;10.80;62.20;9.60;98773;;;;574020;246;24073;-74
2023/03/09 09:14:58;;;;;;;8.80;3.77;;;10.80;59.50;9.10;98769;;;;573034;245;24074;-74
2023/03/09 09:17:26;;;;;;;4.67;2.83;;;10.50;59.20;8.70;98777;;;;582222;244;24120;-72
2023/03/09 09:19:54;;;;;;;7.77;3.60;;;10.10;59.40;8.70;98784;;;;579184;244;24053;-73
2023/03/09 09:22:22;;;;;;;4.57;2.90;;;10.00;60.30;9.10;98774;;;;587562;243;24142;-73
2023/03/09 09:24:50;;;;;;;6.73;3.40;;;10.30;59.40;9.30;98784;;;;578951;244;24060;-72
2023/03/09 09:27:17;;;;;;;9.10;4.50;;;10.50;59.10;9.70;98788;;;;587778;244;24091;-73
2023/03/09 09:29:45;;;;;;;5.23;4.03;;;10.80;58.80;10.30;98795;;;;580326;243;24057;-70
2023/03/09 09:32:13;;;;;;;6.83;4.10;;;11.20;57.60;10.60;98797;;;;580441;243;24075;-72
2023/03/09 09:34:42;;;;;;;10.17;4.70;;;11.90;57.60;10.70;98799;;;;574273;244;35093;-72
2023/03/09 09:37:11;;;;;;;7.73;3.50;;;11.90;57.50;10.30;98794;;;;579072;244;24097;-71
2023/03/09 09:39:38;;;;;;;7.50;3.83;;;11.70;56.40;9.70;98802;;;;578860;244;24065;-74
2023/03/09 09:42:06;;;;;;;10.37;4.37;;;11.10;57.20;9.10;98808;;;;579008;244;24060;-77
2023/03/09 09:44:34;;;;;;;6.70;3.20;;;10.10;59.10;8.70;98801;;;;577876;244;24177;-73
2023/03/09 09:47:03;;;;;;;8.87;3.53;;;10.00;59.00;8.30;98806;;;;578463;244;24056;-72
2023/03/09 09:49:30;;;;;;;5.63;3.67;;;9.70;59.70;7.70;98799;;;;578512;244;24088;-72
2023/03/09 09:52:17;;;;;;;9.33;3.47;;;9.10;60.80;7.30;98807;;;;578375;244;24066;-75
2023/03/09 09:55:24;;;;;;;11.43;3.40;;;8.70;62.80;7.40;98814;;;;578327;244;24077;-72
2023/03/09 09:57:55;;;;;;;3.93;3.20;;;8.60;64.20;7.60;98821;;;;578511;244;24078;-71
2023/03/09 10:00:40;;;;;;;8.07;3.30;;;8.70;63.80;7.80;98818;;;;577983;244;24113;-73
2023/03/09 10:03:20;;;;;;;6.03;2.37;;;8.90;63.50;8.30;98824;;;;578266;244;24059;-74
2023/03/09 10:06:01;;;;;;;3.83;2.30;;;9.40;63.00;9.40;98825;;;;587275;244;24065;-77
2023/03/09 10:09:01;;;;;;;2.40;2.20;;;10.30;61.70;10.20;98835;;;;577743;244;24106;-72
2023/03/09 10:11:32;;;;;;;4.10;2.40;;;11.20;59.40;10.80;98832;;;;578408;244;24092;-74
2023/03/09 10:14:11;;;;;;;6.17;2.50;;;11.90;57.90;10.50;98826;;;;587174;244;24077;-73
2023/03/09 10:17:01;;;;;;;3.43;2.37;;;12.00;56.30;10.30;98837;;;;578033;244;24130;-74
2023/03/09 10:19:33;;;;;;;9.70;2.57;;;11.80;56.60;10.10;98829;;;;577850;244;24099;-73
2023/03/09 10:22:13;;;;;;;4.80;3.30;;;11.70;56.40;9.60;98839;;;;582202;244;35195;-73
2023/03/09 10:24:50;;;;;;;5.87;2.83;;;10.90;57.60;9.30;98837;;;;578272;244;25148;-72
2023/03/09 10:27:21;;;;;;;2.83;2.37;;;10.80;57.50;9.30;98836;;;;578141;244;24099;-77
2023/03/09 10:30:07;;;;;;;3.20;2.10;;;10.60;58.70;9.20;98840;;;;577792;244;24056;-75
2023/03/09 10:32:50;;;;;;;1.70;1.60;;;10.20;58.00;8.70;98829;;;;575210;244;24074;-75
2023/03/09 10:35:36;;;;;;;3.13;1.80;;;10.20;57.90;8.50;98835;;;;577922;244;24061;-76
2023/03/09 10:38:04;;;;;;;1.70;1.33;;;9.90;58.60;8.50;98839;;;;577653;244;24103;-77
2023/03/09 10:40:38;;;;;;;1.67;1.27;;;9.80;58.20;8.40;98835;;;;578949;244;24055;-73
2023/03/09 10:43:06;;;;;;;1.30;1.20;;;9.70;58.00;8.30;98843;;;;578750;244;24086;-72
2023/03/09 10:45:34;;;;;;;0.70;0.70;;;9.50;58.40;8.00;98843;;;;578778;244;24079;-76
2023/03/09 10:48:06;;;;;;;0.83;0.83;;;9.30;57.20;7.70;98844;;;;587762;238;24111;-72
2023/03/09 10:50:35;;;;;;;2.00;0.57;;;9.00;58.10;7.30;98852;;;;584964;241;24066;-78
2023/03/09 10:53:27;;;;;;;1.70;1.00;;;8.60;58.20;7.00;98850;;;;587721;244;24090;-78
2023/03/09 10:55:56;;;;;;;0.70;0.70;;;7.80;58.30;6.50;98851;;;;594723;241;24061;-76
2023/03/09 10:58:24;;;;;;;0.73;0.47;;;7.70;58.20;5.90;98836;;;;573877;246;24065;-75
2023/03/09 11:00:57;;;;;;;0.63;0.40;;;7.20;58.90;5.50;98850;;;;573456;247;24069;-76
2023/03/09 11:03:25;;;;;;;0.57;0.50;;;6.80;60.90;5.20;98845;;;;582099;244;24126;-78
2023/03/09 11:05:53;;;;;;;0.93;0.70;;;6.40;61.40;4.80;98836;;;;577045;244;24077;-77
2023/03/09 11:08:27;;;;;;;0.80;0.37;;;6.00;59.70;4.50;98846;;;;579407;244;24076;-76
2023/03/09 11:11:05;;;;;;;0.93;0.27;;;5.20;63.70;4.00;98836;;;;587641;243;24119;-77
2023/03/09 11:13:32;;;;;;;0.73;0.40;;;5.20;63.70;3.80;98834;;;;578172;244;24063;-77
2023/03/09 11:16:06;;;;;;;18.57;2.07;;;4.90;63.30;3.60;98838;;;;578084;244;24107;-74
2023/03/09 11:18:34;;;;;;;6.23;2.53;;;4.70;64.10;3.60;98849;;;;577896;244;24085;-78
2023/03/09 11:21:02;;;;;;;4.33;1.87;;;4.60;63.00;3.50;98845;;;;578279;244;24075;-76
2023/03/09 11:23:39;;;;;;;13.90;1.73;;;4.40;61.90;3.40;98837;;;;578953;244;24055;-74
2023/03/09 11:26:19;;;;;;;13.10;2.73;;;4.40;61.00;3.50;98845;;;;587694;244;24100;-77